Time;durP1;ratioP1;P1;durP2;ratioP2;P2;SDS_P1;SDS_P2;PMS_P1;PMS_P2;Temp;Humidity;BMP_temperature;BMP_pressure;BME280_temperature;BME280_humidity;BME280_pressure;Samples;Min_cycle;Max_cycle;Signal;HPM_P1;HPM_P2
2023/03/19 00:00:15;;;;;;;;;;;;;;;19.58;58.06;98998.69;2080818;28;19933;-54
2023/03/19 00:01:16;;;;;;;;;;;;;;;19.58;58.18;99005.94;2081169;28;19936;-55
2023/03/19 00:02:16;;;;;;;;;;;;;;;19.58;57.92;99008.63;2086786;28;20592;-55
2023/03/19 00:03:18;;;;;;;;;;;;;;;19.56;58.22;99002.63;2080775;28;19932;-54
2023/03/19 00:04:18;;;;;;;;;;;;;;;19.57;58.08;99006.97;2081028;28;20440;-56
2023/03/19 00:05:20;;;;;;;;;;;;;;;19.56;57.91;99002.63;2079788;28;19940;-56
2023/03/19 00:06:21;;;;;;;;;;;;;;;19.56;58.23;99005.31;2081170;28;19940;-62
2023/03/19 00:07:23;;;;;;;;;;;;;;;19.57;58.19;99004.28;2079763;28;19939;-52
2023/03/19 00:08:23;;;;;;;;;;;;;;;19.57;58.05;98998.91;2078341;28;19932;-54
2023/03/19 00:09:26;;;;;;;;;;;;;;;19.55;57.85;99000.94;2076000;28;19929;-56
2023/03/19 00:10:27;;;;;;;;;;;;;;;19.53;58.20;99001.16;2085372;28;19936;-54
2023/03/19 00:11:29;;;;;;;;;;;;;;;19.53;57.97;98997.63;2088954;28;19993;-52
2023/03/19 00:12:30;;;;;;;;;;;;;;;19.53;58.18;99001.16;2088447;28;19924;-53
2023/03/19 00:13:31;;;;;;;;;;;;;;;19.54;58.08;99002.00;2084183;28;20321;-55
2023/03/19 00:14:32;;;;;;;;;;;;;;;19.53;57.84;99000.31;2087558;28;19924;-55
2023/03/19 00:15:33;;;;;;;;;;;;;;;19.51;58.16;99000.53;2088486;28;19966;-55
2023/03/19 00:16:34;;;;;;;;;;;;;;;19.51;58.23;99002.41;2086620;28;19973;-55
2023/03/19 00:17:35;;;;;;;;;;;;;;;19.51;58.09;98997.84;2087799;28;19971;-57
2023/03/19 00:18:36;;;;;;;;;;;;;;;19.52;57.87;99004.03;2085165;28;19950;-57
2023/03/19 00:19:38;;;;;;;;;;;;;;;19.51;57.98;99002.41;2088184;28;19936;-53
2023/03/19 00:20:38;;;;;;;;;;;;;;;19.49;58.09;98997.22;2086072;28;19929;-56
2023/03/19 00:21:40;;;;;;;;;;;;;;;19.51;58.19;99002.41;2086851;28;19971;-57
2023/03/19 00:22:40;;;;;;;;;;;;;;;19.49;57.69;98999.91;2088148;28;20514;-56
2023/03/19 00:23:42;;;;;;;;;;;;;;;19.49;58.03;98997.22;2085784;28;19936;-57
2023/03/19 00:24:42;;;;;;;;;;;;;;;19.47;58.03;98988.50;2088346;28;19951;-55
2023/03/19 00:25:45;;;;;;;;;;;;;;;19.48;57.89;98990.19;2088055;28;19928;-56
2023/03/19 00:26:45;;;;;;;;;;;;;;;19.48;57.99;98994.72;2083132;28;19988;-56
2023/03/19 00:27:47;;;;;;;;;;;;;;;19.46;57.88;98994.09;2085691;28;19933;-54
2023/03/19 00:28:47;;;;;;;;;;;;;;;19.47;57.86;98990.38;2085913;28;19925;-54
2023/03/19 00:29:49;;;;;;;;;;;;;;;19.47;58.03;98993.88;2085955;28;19978;-56
2023/03/19 00:30:49;;;;;;;;;;;;;;;19.45;57.83;98985.19;2087138;28;20015;-54
2023/03/19 00:31:51;;;;;;;;;;;;;;;19.41;57.68;98987.44;2086351;28;19928;-54
2023/03/19 00:32:51;;;;;;;;;;;;;;;19.45;57.93;98977.13;2088985;28;20413;-54
2023/03/19 00:33:53;;;;;;;;;;;;;;;19.43;57.90;98974.63;2086683;28;20019;-54
2023/03/19 00:34:54;;;;;;;;;;;;;;;19.43;57.82;98968.44;2084113;28;19936;-55
2023/03/19 00:35:55;;;;;;;;;;;;;;;19.42;57.89;98972.97;2087283;28;19976;-56
2023/03/19 00:36:56;;;;;;;;;;;;;;;19.41;57.70;98965.91;2087482;28;20001;-54
2023/03/19 00:37:57;;;;;;;;;;;;;;;19.42;57.86;98977.53;2085895;28;19979;-54
2023/03/19 00:38:58;;;;;;;;;;;;;;;19.40;57.92;98968.81;2085706;28;20071;-54
2023/03/19 00:40:00;;;;;;;;;;;;;;;19.41;57.82;98976.69;2087436;28;19928;-56
2023/03/19 00:41:02;;;;;;;;;;;;;;;19.41;57.86;98976.69;2085239;28;20475;-54
2023/03/19 00:42:03;;;;;;;;;;;;;;;19.39;57.91;98973.38;2077454;28;19933;-54
2023/03/19 00:43:04;;;;;;;;;;;;;;;19.40;57.89;98982.28;2076316;28;19924;-56
2023/03/19 00:44:06;;;;;;;;;;;;;;;19.39;58.02;98969.88;2078795;28;20639;-53
2023/03/19 00:45:08;;;;;;;;;;;;;;;19.39;57.87;98975.25;2076871;27;20079;-56
2023/03/19 00:46:09;;;;;;;;;;;;;;;19.38;57.80;98977.09;2078835;28;19929;-53
2023/03/19 00:47:10;;;;;;;;;;;;;;;19.37;57.95;98970.06;2078816;28;20504;-56
2023/03/19 00:48:11;;;;;;;;;;;;;;;19.37;57.65;98975.44;2077067;27;19974;-55
2023/03/19 00:49:12;;;;;;;;;;;;;;;19.37;57.73;98980.81;2074941;28;19933;-56
2023/03/19 00:50:13;;;;;;;;;;;;;;;19.37;57.54;98974.59;2078931;28;20402;-55
2023/03/19 00:51:13;;;;;;;;;;;;;;;19.35;57.53;98988.25;2078427;28;20435;-53
2023/03/19 00:52:15;;;;;;;;;;;;;;;19.34;57.69;98978.53;2074289;28;20162;-54
2023/03/19 00:53:16;;;;;;;;;;;;;;;19.35;57.93;98982.88;2081485;28;19928;-54
2023/03/19 00:54:17;;;;;;;;;;;;;;;19.34;57.86;98981.22;2083858;28;19937;-56
2023/03/19 00:55:18;;;;;;;;;;;;;;;19.33;57.54;98978.72;2082597;28;20054;-53
2023/03/19 00:56:21;;;;;;;;;;;;;;;19.33;57.76;98976.03;2075499;28;20185;-54
2023/03/19 00:57:22;;;;;;;;;;;;;;;19.33;57.51;98987.59;2077946;28;20010;-54
2023/03/19 00:58:23;;;;;;;;;;;;;;;19.33;57.80;98978.72;2074920;27;19932;-54
2023/03/19 00:59:24;;;;;;;;;;;;;;;19.32;57.51;98974.38;2081568;28;19936;-54
2023/03/19 01:00:26;;;;;;;;;;;;;;;19.33;57.42;98978.72;2077387;28;19933;-55
2023/03/19 01:01:26;;;;;;;;;;;;;;;19.31;57.83;98976.25;2079793;28;19940;-54
2023/03/19 01:02:28;;;;;;;;;;;;;;;19.31;57.63;98978.09;2077323;28;19928;-54
2023/03/19 01:03:28;;;;;;;;;;;;;;;19.29;57.67;98969.41;2084502;28;19929;-54
2023/03/19 01:04:30;;;;;;;;;;;;;;;19.28;57.40;98968.56;2078506;28;20870;-56
2023/03/19 01:05:30;;;;;;;;;;;;;;;19.29;57.48;98969.41;2075934;28;19932;-55
2023/03/19 01:06:32;;;;;;;;;;;;;;;19.28;57.75;98968.56;2077917;28;19974;-57
2023/03/19 01:07:32;;;;;;;;;;;;;;;19.28;57.75;98970.41;2079501;27;19925;-54
2023/03/19 01:08:34;;;;;;;;;;;;;;;19.28;57.76;98971.25;2076143;28;19928;-56
2023/03/19 01:09:35;;;;;;;;;;;;;;;19.27;57.76;98974.13;2076360;28;19959;-55
2023/03/19 01:10:36;;;;;;;;;;;;;;;19.26;57.40;98976.00;2078305;28;20020;-53
2023/03/19 01:11:38;;;;;;;;;;;;;;;19.25;57.78;98971.66;2076124;28;19941;-54
2023/03/19 01:12:40;;;;;;;;;;;;;;;19.24;57.85;98967.31;2075955;28;20440;-53
2023/03/19 01:13:41;;;;;;;;;;;;;;;19.26;57.77;98967.94;2078356;28;20013;-55
2023/03/19 01:14:42;;;;;;;;;;;;;;;19.24;57.62;98970.00;2082613;28;20010;-54
2023/03/19 01:15:42;;;;;;;;;;;;;;;19.23;57.80;98962.97;2079601;28;19933;-54
2023/03/19 01:16:44;;;;;;;;;;;;;;;19.23;57.45;98962.97;2076420;28;20821;-54
2023/03/19 01:17:45;;;;;;;;;;;;;;;19.24;57.60;98963.78;2078344;28;19932;-54
2023/03/19 01:18:46;;;;;;;;;;;;;;;19.22;57.75;98966.66;2078708;27;20339;-54
2023/03/19 01:19:47;;;;;;;;;;;;;;;19.23;57.45;98965.66;2078265;28;19929;-54
2023/03/19 01:20:49;;;;;;;;;;;;;;;19.22;57.57;98966.66;2077837;28;19982;-54
2023/03/19 01:21:49;;;;;;;;;;;;;;;19.21;57.54;98962.31;2080289;28;19929;-55
2023/03/19 01:22:51;;;;;;;;;;;;;;;19.21;57.65;98962.31;2074826;28;20002;-56
2023/03/19 01:23:52;;;;;;;;;;;;;;;19.20;57.47;98963.38;2077767;28;19928;-57
2023/03/19 01:24:53;;;;;;;;;;;;;;;19.20;57.51;98947.22;2082229;28;20105;-55
2023/03/19 01:25:53;;;;;;;;;;;;;;;19.18;57.54;98955.47;2079270;28;19958;-56
2023/03/19 01:26:56;;;;;;;;;;;;;;;19.20;57.54;98958.00;2076022;28;19960;-56
2023/03/19 01:27:57;;;;;;;;;;;;;;;19.17;57.72;98955.69;2076296;28;20370;-56
2023/03/19 01:28:58;;;;;;;;;;;;;;;19.18;57.63;98946.59;2076815;28;19990;-55
2023/03/19 01:29:59;;;;;;;;;;;;;;;19.16;57.61;98941.41;2078510;28;20623;-54
2023/03/19 01:31:01;;;;;;;;;;;;;;;19.16;57.69;98949.47;2078987;28;19931;-54
2023/03/19 01:32:02;;;;;;;;;;;;;;;19.15;57.41;98944.31;2076677;28;19932;-55
2023/03/19 01:33:04;;;;;;;;;;;;;;;19.16;57.52;98951.34;2079113;28;19932;-54
2023/03/19 01:34:05;;;;;;;;;;;;;;;19.15;57.46;98949.69;2077639;28;19938;-55
2023/03/19 01:35:07;;;;;;;;;;;;;;;19.14;57.50;98945.34;2079015;28;19929;-53
2023/03/19 01:36:08;;;;;;;;;;;;;;;19.14;57.42;98948.84;2077333;28;19989;-55
2023/03/19 01:37:09;;;;;;;;;;;;;;;19.14;57.57;98948.03;2077258;28;19999;-54
2023/03/19 01:38:10;;;;;;;;;;;;;;;19.13;57.94;98957.09;2077684;28;19993;-53
2023/03/19 01:39:11;;;;;;;;;;;;;;;19.11;57.54;98949.25;2076077;28;21110;-53
2023/03/19 01:40:13;;;;;;;;;;;;;;;19.13;57.70;98951.72;2075942;28;19974;-54
2023/03/19 01:41:14;;;;;;;;;;;;;;;19.11;57.65;98954.63;2075775;28;19932;-54
2023/03/19 01:42:16;;;;;;;;;;;;;;;19.09;57.52;98947.78;2075696;28;19932;-55
2023/03/19 01:43:19;;;;;;;;;;;;;;;19.09;57.67;98947.78;2075102;28;20029;-49
2023/03/19 01:44:26;;;;;;;;;;;;;;;19.10;57.40;98944.06;2074487;28;19959;-55
2023/03/19 01:45:33;;;;;;;;;;;;;;;19.08;57.79;98940.75;2079147;28;19932;-50
2023/03/19 01:46:35;;;;;;;;;;;;;;;19.09;57.35;98953.19;2078053;28;19955;-50
2023/03/19 01:47:38;;;;;;;;;;;;;;;19.07;57.65;98941.78;2079273;28;19932;-55
2023/03/19 01:48:40;;;;;;;;;;;;;;;19.07;57.41;98945.28;2076557;28;19955;-52
2023/03/19 01:49:44;;;;;;;;;;;;;;;19.06;57.39;98942.81;2078079;28;20595;-53
2023/03/19 01:50:45;;;;;;;;;;;;;;;19.08;57.78;98943.44;2076941;28;19968;-55
2023/03/19 01:51:47;;;;;;;;;;;;;;;19.05;57.30;98943.81;2075534;28;19933;-53
2023/03/19 01:52:47;;;;;;;;;;;;;;;19.06;57.61;98950.88;2071350;28;20001;-56
2023/03/19 01:53:51;;;;;;;;;;;;;;;19.05;57.42;98943.81;2075727;28;19936;-56
2023/03/19 01:54:52;;;;;;;;;;;;;;;19.05;57.65;98946.53;2078241;28;20634;-54
2023/03/19 01:55:56;;;;;;;;;;;;;;;19.03;57.57;98943.19;2077246;28;19936;-56
2023/03/19 01:56:59;;;;;;;;;;;;;;;19.01;57.80;98932.66;2077534;28;19936;-57
2023/03/19 01:58:02;;;;;;;;;;;;;;;19.03;57.71;98943.19;2079352;28;19935;-58
2023/03/19 01:59:06;;;;;;;;;;;;;;;19.02;57.62;98939.69;2078045;28;19933;-59
2023/03/19 02:00:08;;;;;;;;;;;;;;;19.00;57.51;98943.59;2077352;28;19932;-57
2023/03/19 02:01:09;;;;;;;;;;;;;;;19.01;57.72;98939.91;2073310;27;19928;-53
2023/03/19 02:02:13;;;;;;;;;;;;;;;19.01;57.76;98939.91;2079571;28;19929;-50
2023/03/19 02:03:14;;;;;;;;;;;;;;;18.99;57.53;98942.75;2078413;28;20024;-58
2023/03/19 02:04:15;;;;;;;;;;;;;;;18.98;57.69;98938.44;2077627;28;20852;-56
2023/03/19 02:05:24;;;;;;;;;;;;;;;18.98;57.80;98939.25;2075317;28;19932;-53
2023/03/19 02:06:27;;;;;;;;;;;;;;;18.98;57.71;98941.13;2075785;28;20302;-57
2023/03/19 02:07:28;;;;;;;;;;;;;;;18.96;57.68;98935.94;2080173;27;20055;-54
2023/03/19 02:08:30;;;;;;;;;;;;;;;18.94;57.61;98932.63;2078463;28;19932;-55
2023/03/19 02:09:31;;;;;;;;;;;;;;;18.94;57.54;98932.63;2078276;28;19986;-52
2023/03/19 02:10:33;;;;;;;;;;;;;;;18.95;57.66;98936.97;2076594;28;22886;-56
2023/03/19 02:11:34;;;;;;;;;;;;;;;18.95;57.52;98934.28;2078586;28;20032;-54
2023/03/19 02:12:35;;;;;;;;;;;;;;;18.95;57.52;98934.28;2084210;28;19935;-53
2023/03/19 02:13:38;;;;;;;;;;;;;;;18.94;57.38;98935.31;2084213;28;19969;-54
2023/03/19 02:14:39;;;;;;;;;;;;;;;18.94;57.50;98935.31;2087247;28;19924;-57
2023/03/19 02:15:41;;;;;;;;;;;;;;;18.94;57.37;98932.63;2085405;28;20506;-57
2023/03/19 02:16:41;;;;;;;;;;;;;;;18.93;57.88;98941.69;2085185;28;19933;-55
2023/03/19 02:17:43;;;;;;;;;;;;;;;18.93;57.40;98936.31;2085311;28;19924;-55
2023/03/19 02:18:43;;;;;;;;;;;;;;;18.91;57.48;98924.94;2083157;28;19928;-53
2023/03/19 02:19:48;;;;;;;;;;;;;;;18.92;57.65;98928.47;2084935;28;20001;-57
2023/03/19 02:20:50;;;;;;;;;;;;;;;18.91;57.45;98930.31;2084571;28;22083;-52
2023/03/19 02:21:51;;;;;;;;;;;;;;;18.89;57.70;98931.56;2086649;28;19932;-57
2023/03/19 02:22:55;;;;;;;;;;;;;;;18.89;57.88;98931.56;2086616;28;19925;-55
2023/03/19 02:24:01;;;;;;;;;;;;;;;18.89;57.61;98929.69;2084165;28;19939;-56
2023/03/19 02:25:05;;;;;;;;;;;;;;;18.89;57.83;98931.56;2085604;28;19977;-56
2023/03/19 02:26:09;;;;;;;;;;;;;;;18.89;57.38;98934.25;2086305;28;19997;-56
2023/03/19 02:27:10;;;;;;;;;;;;;;;18.86;57.63;98927.41;2086396;28;19925;-56
2023/03/19 02:28:14;;;;;;;;;;;;;;;18.86;57.70;98930.09;2088161;28;19929;-53
2023/03/19 02:29:15;;;;;;;;;;;;;;;18.85;57.66;98925.72;2087221;28;19998;-56
2023/03/19 02:30:21;;;;;;;;;;;;;;;18.85;57.71;98925.72;2086917;28;20470;-57
2023/03/19 02:31:22;;;;;;;;;;;;;;;18.84;57.67;98921.41;2081454;28;19929;-58
2023/03/19 02:32:23;;;;;;;;;;;;;;;18.86;57.64;98915.81;2089027;28;19986;-57
2023/03/19 02:33:24;;;;;;;;;;;;;;;18.86;57.49;98919.34;2086088;28;19929;-57
2023/03/19 02:34:36;;;;;;;;;;;;;;;18.85;57.34;98917.66;2085651;28;20615;-55
2023/03/19 02:35:37;;;;;;;;;;;;;;;18.85;57.64;98916.84;2085951;28;20474;-57
2023/03/19 02:36:41;;;;;;;;;;;;;;;18.84;57.59;98923.25;2083978;28;19981;-51
2023/03/19 02:37:41;;;;;;;;;;;;;;;18.83;57.60;98918.91;2081843;28;19944;-56
2023/03/19 02:38:44;;;;;;;;;;;;;;;18.82;57.59;98918.06;2085675;28;20381;-56
2023/03/19 02:39:57;;;;;;;;;;;;;;;18.83;57.60;98919.72;2081704;28;19979;-55
2023/03/19 02:41:00;;;;;;;;;;;;;;;18.80;57.85;98916.59;2079791;28;20534;-54
2023/03/19 02:42:03;;;;;;;;;;;;;;;18.82;57.67;98917.25;2079593;28;20382;-53
2023/03/19 02:43:03;;;;;;;;;;;;;;;18.82;57.78;98914.56;2078447;28;19936;-53
2023/03/19 02:44:06;;;;;;;;;;;;;;;18.82;57.47;98918.06;2077301;28;20382;-55
2023/03/19 02:45:07;;;;;;;;;;;;;;;18.79;57.33;98915.78;2078219;28;20595;-55
2023/03/19 02:46:11;;;;;;;;;;;;;;;18.79;57.67;98915.78;2079859;28;19932;-56
2023/03/19 02:47:11;;;;;;;;;;;;;;;18.78;57.52;98910.59;2079205;28;20047;-56
2023/03/19 02:48:13;;;;;;;;;;;;;;;18.80;57.53;98913.91;2078849;28;19932;-56
2023/03/19 02:49:14;;;;;;;;;;;;;;;18.77;57.65;98923.19;2076430;28;19929;-55
2023/03/19 02:50:15;;;;;;;;;;;;;;;18.76;57.56;98918.88;2077896;28;19929;-55
2023/03/19 02:51:16;;;;;;;;;;;;;;;18.76;57.63;98918.88;2076228;28;20005;-58
2023/03/19 02:52:17;;;;;;;;;;;;;;;18.75;57.58;98919.91;2080009;28;19929;-58
2023/03/19 02:53:18;;;;;;;;;;;;;;;18.74;57.59;98921.75;2080380;28;19993;-57
2023/03/19 02:54:19;;;;;;;;;;;;;;;18.74;57.81;98926.28;2084910;28;20018;-51
2023/03/19 02:55:20;;;;;;;;;;;;;;;18.73;57.73;98927.28;2081503;28;19928;-56
2023/03/19 02:56:21;;;;;;;;;;;;;;;18.73;57.35;98924.59;2077092;28;19929;-59
2023/03/19 02:57:23;;;;;;;;;;;;;;;18.72;57.82;98929.16;2078312;28;19962;-57
2023/03/19 02:58:25;;;;;;;;;;;;;;;18.72;57.87;98934.53;2079111;28;19931;-57
2023/03/19 02:59:25;;;;;;;;;;;;;;;18.72;57.68;98933.69;2078402;28;19970;-55
2023/03/19 03:00:27;;;;;;;;;;;;;;;18.74;57.78;98937.03;2079122;28;19933;-56
2023/03/19 03:01:28;;;;;;;;;;;;;;;18.74;57.51;98937.03;2085653;28;19982;-52
2023/03/19 03:02:29;;;;;;;;;;;;;;;18.73;57.51;98935.34;2084041;28;19943;-55
2023/03/19 03:03:31;;;;;;;;;;;;;;;18.72;57.68;98931.00;2086035;28;19929;-53
2023/03/19 03:04:33;;;;;;;;;;;;;;;18.70;57.60;98931.22;2083805;28;19939;-55
2023/03/19 03:05:33;;;;;;;;;;;;;;;18.70;57.68;98927.69;2080410;28;19932;-53
2023/03/19 03:06:35;;;;;;;;;;;;;;;18.69;57.61;98929.56;2075367;28;19991;-54
2023/03/19 03:07:36;;;;;;;;;;;;;;;18.70;57.70;98925.00;2072987;28;21359;-55
2023/03/19 03:08:37;;;;;;;;;;;;;;;18.69;57.70;98931.38;2071502;28;19936;-54
2023/03/19 03:09:38;;;;;;;;;;;;;;;18.69;57.87;98932.25;2071593;28;20030;-55
2023/03/19 03:10:39;;;;;;;;;;;;;;;18.68;57.74;98932.44;2075960;27;20858;-55
2023/03/19 03:11:40;;;;;;;;;;;;;;;18.66;57.80;98940.66;2076398;28;19936;-56
2023/03/19 03:12:43;;;;;;;;;;;;;;;18.67;57.98;98938.84;2076017;28;19933;-54
2023/03/19 03:13:43;;;;;;;;;;;;;;;18.68;57.45;98949.38;2073950;28;19938;-51
2023/03/19 03:14:45;;;;;;;;;;;;;;;18.67;57.70;98947.72;2077936;28;19974;-53
2023/03/19 03:15:45;;;;;;;;;;;;;;;18.67;57.67;98946.91;2076021;27;19954;-53
2023/03/19 03:16:47;;;;;;;;;;;;;;;18.65;57.44;98944.41;2075011;28;19936;-54
2023/03/19 03:17:48;;;;;;;;;;;;;;;18.66;57.59;98947.91;2076874;28;20394;-53
2023/03/19 03:18:50;;;;;;;;;;;;;;;18.64;57.80;98948.13;2076289;28;20036;-54
2023/03/19 03:19:50;;;;;;;;;;;;;;;18.64;57.84;98944.59;2074569;28;19976;-51
2023/03/19 03:20:52;;;;;;;;;;;;;;;18.62;57.59;98949.34;2072938;28;19939;-54
2023/03/19 03:21:53;;;;;;;;;;;;;;;18.62;57.88;98941.28;2078446;28;19933;-54
2023/03/19 03:22:54;;;;;;;;;;;;;;;18.63;57.75;98949.13;2075287;28;19950;-52
2023/03/19 03:23:55;;;;;;;;;;;;;;;18.63;57.84;98940.25;2076952;28;19949;-54
2023/03/19 03:24:56;;;;;;;;;;;;;;;18.62;57.72;98950.16;2076316;27;19933;-53
2023/03/19 03:25:57;;;;;;;;;;;;;;;18.61;57.66;98945.81;2076204;28;20931;-50
2023/03/19 03:26:58;;;;;;;;;;;;;;;18.61;57.83;98953.03;2074964;28;19937;-53
2023/03/19 03:28:01;;;;;;;;;;;;;;;18.62;57.37;98946.66;2072252;28;20647;-54
2023/03/19 03:29:03;;;;;;;;;;;;;;;18.61;57.72;98944.97;2074586;28;19971;-53
2023/03/19 03:30:06;;;;;;;;;;;;;;;18.62;57.86;98949.34;2074879;28;19935;-53
2023/03/19 03:31:07;;;;;;;;;;;;;;;18.60;57.75;98943.31;2077149;28;20063;-55
2023/03/19 03:32:09;;;;;;;;;;;;;;;18.60;57.75;98948.69;2076008;28;20409;-58
2023/03/19 03:33:09;;;;;;;;;;;;;;;18.59;57.59;98941.66;2078509;28;20344;-55
2023/03/19 03:34:11;;;;;;;;;;;;;;;18.60;57.61;98937.94;2079626;28;19928;-55
2023/03/19 03:35:12;;;;;;;;;;;;;;;18.58;57.84;98940.00;2074729;28;19932;-58
2023/03/19 03:36:13;;;;;;;;;;;;;;;18.57;57.72;98941.84;2076284;28;19928;-55
2023/03/19 03:37:13;;;;;;;;;;;;;;;18.58;57.65;98948.06;2074122;28;20838;-53
2023/03/19 03:38:15;;;;;;;;;;;;;;;18.58;57.82;98948.06;2076496;28;19932;-54
2023/03/19 03:39:15;;;;;;;;;;;;;;;18.57;57.69;98943.72;2064440;27;20838;-58
2023/03/19 03:40:17;;;;;;;;;;;;;;;18.56;57.64;98940.19;2077762;28;19928;-53
2023/03/19 03:41:18;;;;;;;;;;;;;;;18.56;57.79;98945.56;2080161;28;19932;-49
2023/03/19 03:42:19;;;;;;;;;;;;;;;18.56;57.82;98939.38;2080491;28;19985;-52
2023/03/19 03:43:21;;;;;;;;;;;;;;;18.56;57.78;98947.44;2080065;28;20356;-53
2023/03/19 03:44:23;;;;;;;;;;;;;;;18.54;57.79;98945.75;2078354;28;20019;-56
2023/03/19 03:45:23;;;;;;;;;;;;;;;18.54;57.93;98942.25;2076193;28;19933;-52
2023/03/19 03:46:25;;;;;;;;;;;;;;;18.56;57.94;98939.38;2067951;28;20583;-57
2023/03/19 03:47:25;;;;;;;;;;;;;;;18.54;57.72;98937.69;2072805;28;19928;-53
2023/03/19 03:48:27;;;;;;;;;;;;;;;18.54;57.97;98940.38;2070622;28;19933;-54
2023/03/19 03:49:27;;;;;;;;;;;;;;;18.53;57.87;98940.59;2069233;28;19933;-52
2023/03/19 03:50:29;;;;;;;;;;;;;;;18.52;57.68;98942.44;2070275;28;20280;-56
2023/03/19 03:51:30;;;;;;;;;;;;;;;18.53;57.76;98938.75;2070390;28;19929;-58
2023/03/19 03:52:32;;;;;;;;;;;;;;;18.52;57.59;98939.75;2065754;28;19933;-56
2023/03/19 03:53:33;;;;;;;;;;;;;;;18.51;57.53;98939.94;2066922;28;19929;-58
2023/03/19 03:54:34;;;;;;;;;;;;;;;18.51;57.68;98943.47;2066392;28;19964;-56
2023/03/19 03:55:35;;;;;;;;;;;;;;;18.51;57.52;98942.66;2062328;28;19963;-57
2023/03/19 03:56:37;;;;;;;;;;;;;;;18.51;57.58;98940.78;2067406;28;19929;-57
2023/03/19 03:57:37;;;;;;;;;;;;;;;18.47;57.65;98942.22;2069794;28;20474;-57
2023/03/19 03:58:40;;;;;;;;;;;;;;;18.48;57.83;98949.22;2068970;28;19940;-54
2023/03/19 03:59:41;;;;;;;;;;;;;;;18.48;57.55;98957.28;2067914;28;19967;-58
2023/03/19 04:00:42;;;;;;;;;;;;;;;18.51;57.74;98950.69;2068536;28;19929;-57
2023/03/19 04:01:43;;;;;;;;;;;;;;;18.50;57.49;98951.75;2068605;28;19933;-54
2023/03/19 04:02:44;;;;;;;;;;;;;;;18.46;57.68;98951.28;2067408;28;19963;-58
2023/03/19 04:03:45;;;;;;;;;;;;;;;18.44;57.55;98945.28;2068327;28;19933;-51
2023/03/19 04:04:47;;;;;;;;;;;;;;;18.44;57.88;98947.97;2067984;28;20340;-53
2023/03/19 04:05:47;;;;;;;;;;;;;;;18.45;57.72;98948.81;2068743;28;20075;-57
2023/03/19 04:06:49;;;;;;;;;;;;;;;18.44;57.78;98950.66;2069864;28;20872;-53
2023/03/19 04:07:50;;;;;;;;;;;;;;;18.43;57.88;98940.91;2068931;28;19933;-56
2023/03/19 04:08:52;;;;;;;;;;;;;;;18.44;57.68;98949.81;2070733;28;19933;-52
2023/03/19 04:09:52;;;;;;;;;;;;;;;18.43;57.88;98948.97;2064583;28;19939;-55
2023/03/19 04:10:54;;;;;;;;;;;;;;;18.42;57.62;98939.28;2078133;28;19940;-56
2023/03/19 04:11:54;;;;;;;;;;;;;;;18.42;57.59;98943.81;2072960;28;19928;-58
2023/03/19 04:12:56;;;;;;;;;;;;;;;18.42;57.89;98943.81;2071824;28;19929;-52
2023/03/19 04:13:58;;;;;;;;;;;;;;;18.42;57.70;98944.66;2071883;28;19933;-58
2023/03/19 04:14:59;;;;;;;;;;;;;;;18.43;57.78;98946.28;2073456;28;19933;-56
2023/03/19 04:16:00;;;;;;;;;;;;;;;18.44;57.68;98947.13;2075791;28;19928;-56
2023/03/19 04:17:01;;;;;;;;;;;;;;;18.42;57.46;98947.34;2076971;28;20586;-53
2023/03/19 04:18:02;;;;;;;;;;;;;;;18.41;57.57;98950.19;2074148;28;19985;-55
2023/03/19 04:19:04;;;;;;;;;;;;;;;18.41;57.60;98947.50;2077406;28;20362;-52
2023/03/19 04:20:06;;;;;;;;;;;;;;;18.40;57.66;98949.38;2079559;28;20027;-52
2023/03/19 04:21:08;;;;;;;;;;;;;;;18.40;57.82;98945.88;2079043;28;20651;-53
2023/03/19 04:22:08;;;;;;;;;;;;;;;18.40;57.84;98946.69;2081306;28;19929;-57
2023/03/19 04:23:10;;;;;;;;;;;;;;;18.40;57.71;98951.22;2077645;28;19967;-53
2023/03/19 04:24:10;;;;;;;;;;;;;;;18.38;57.49;98945.22;2078005;28;19929;-58
2023/03/19 04:25:12;;;;;;;;;;;;;;;18.39;57.65;98941.53;2076674;28;20386;-57
2023/03/19 04:26:12;;;;;;;;;;;;;;;18.38;57.75;98945.22;2080784;28;19929;-52
2023/03/19 04:27:14;;;;;;;;;;;;;;;18.38;57.58;98951.41;2079552;28;19929;-54
2023/03/19 04:28:14;;;;;;;;;;;;;;;18.37;57.54;98944.41;2077599;28;20006;-54
2023/03/19 04:29:17;;;;;;;;;;;;;;;18.37;57.64;98940.88;2078034;28;19925;-54
2023/03/19 04:30:18;;;;;;;;;;;;;;;18.36;57.82;98949.94;2077156;28;19929;-51
2023/03/19 04:31:20;;;;;;;;;;;;;;;18.36;57.67;98942.75;2078872;28;19933;-50
2023/03/19 04:32:21;;;;;;;;;;;;;;;18.35;57.78;98949.13;2078837;28;20017;-55
2023/03/19 04:33:23;;;;;;;;;;;;;;;18.35;57.81;98954.50;2076361;28;19952;-54
2023/03/19 04:34:23;;;;;;;;;;;;;;;18.35;57.64;98943.75;2079329;28;19976;-54
2023/03/19 04:35:25;;;;;;;;;;;;;;;18.35;57.59;98949.13;2076105;28;19944;-53
2023/03/19 04:36:26;;;;;;;;;;;;;;;18.37;57.81;98947.06;2075876;28;19940;-53
2023/03/19 04:37:27;;;;;;;;;;;;;;;18.37;57.70;98952.44;2077239;28;19933;-54
2023/03/19 04:38:28;;;;;;;;;;;;;;;18.37;57.71;98947.06;2077468;28;19933;-58
2023/03/19 04:39:29;;;;;;;;;;;;;;;18.36;57.54;98948.13;2077857;28;19982;-55
2023/03/19 04:40:31;;;;;;;;;;;;;;;18.35;57.63;98949.13;2074983;28;19933;-57
2023/03/19 04:41:32;;;;;;;;;;;;;;;18.34;57.63;98944.78;2072146;28;19933;-55
2023/03/19 04:42:33;;;;;;;;;;;;;;;18.33;57.67;98953.88;2069801;28;19983;-55
2023/03/19 04:43:33;;;;;;;;;;;;;;;18.33;57.87;98951.19;2069108;28;19989;-58
2023/03/19 04:44:37;;;;;;;;;;;;;;;18.33;57.70;98953.88;2068104;28;19971;-57
2023/03/19 04:45:37;;;;;;;;;;;;;;;18.37;57.57;98952.44;2068955;28;19933;-55
2023/03/19 04:46:39;;;;;;;;;;;;;;;18.35;57.80;98949.13;2067608;28;20629;-52
2023/03/19 04:47:40;;;;;;;;;;;;;;;18.36;57.61;98953.50;2068270;28;23037;-56
2023/03/19 04:48:41;;;;;;;;;;;;;;;18.34;57.81;98958.22;2071096;28;19983;-57
2023/03/19 04:49:41;;;;;;;;;;;;;;;18.34;57.63;98960.06;2065337;28;19932;-52
2023/03/19 04:50:44;;;;;;;;;;;;;;;18.35;57.73;98953.66;2075885;28;19933;-54
2023/03/19 04:51:44;;;;;;;;;;;;;;;18.33;57.63;98951.19;2070962;28;19937;-56
2023/03/19 04:52:46;;;;;;;;;;;;;;;18.31;57.95;98953.22;2070856;28;19929;-53
2023/03/19 04:53:48;;;;;;;;;;;;;;;18.29;57.72;98949.91;2076986;28;19932;-54
2023/03/19 04:54:49;;;;;;;;;;;;;;;18.31;57.77;98951.38;2076858;28;20006;-52
2023/03/19 04:55:50;;;;;;;;;;;;;;;18.29;57.82;98939.16;2068256;28;19987;-55
2023/03/19 04:56:51;;;;;;;;;;;;;;;18.31;57.77;98947.88;2069728;28;20642;-52
2023/03/19 04:57:52;;;;;;;;;;;;;;;18.30;57.76;98951.56;2069793;28;20508;-53
2023/03/19 04:58:54;;;;;;;;;;;;;;;18.30;57.55;98955.09;2068658;28;20019;-54
2023/03/19 04:59:56;;;;;;;;;;;;;;;18.30;57.65;98956.91;2068084;28;19929;-55
2023/03/19 05:00:57;;;;;;;;;;;;;;;18.32;57.56;98954.88;2069954;28;19932;-53
2023/03/19 05:01:57;;;;;;;;;;;;;;;18.31;57.43;98955.91;2075935;28;19960;-55
2023/03/19 05:02:59;;;;;;;;;;;;;;;18.30;57.75;98954.25;2070608;28;19940;-55
2023/03/19 05:04:01;;;;;;;;;;;;;;;18.32;57.73;98949.50;2068841;28;19929;-52
2023/03/19 05:05:02;;;;;;;;;;;;;;;18.33;57.66;98950.34;2066822;28;19937;-53
2023/03/19 05:06:04;;;;;;;;;;;;;;;18.31;57.57;98955.91;2070240;28;20383;-58
2023/03/19 05:07:04;;;;;;;;;;;;;;;18.26;57.74;98951.13;2068445;28;19972;-55
2023/03/19 05:08:06;;;;;;;;;;;;;;;18.28;57.67;98946.41;2070191;28;19940;-55
2023/03/19 05:09:08;;;;;;;;;;;;;;;18.28;57.51;98948.25;2069507;28;20459;-58
2023/03/19 05:10:10;;;;;;;;;;;;;;;18.28;57.81;98948.25;2070366;28;19944;-53
2023/03/19 05:11:11;;;;;;;;;;;;;;;18.28;57.62;98949.06;2069102;28;20473;-55
2023/03/19 05:12:12;;;;;;;;;;;;;;;18.26;57.71;98956.50;2068787;28;19932;-56
2023/03/19 05:13:13;;;;;;;;;;;;;;;18.27;57.69;98951.94;2068819;28;19971;-56
2023/03/19 05:14:14;;;;;;;;;;;;;;;18.28;57.68;98956.31;2069070;28;19937;-58
2023/03/19 05:15:17;;;;;;;;;;;;;;;18.25;57.71;98954.00;2069601;28;19955;-56
2023/03/19 05:16:17;;;;;;;;;;;;;;;18.26;57.70;98952.97;2067326;28;19929;-58
2023/03/19 05:17:19;;;;;;;;;;;;;;;18.28;57.61;98956.31;2068704;28;19980;-57
2023/03/19 05:18:20;;;;;;;;;;;;;;;18.27;57.61;98954.63;2069628;28;19933;-53
2023/03/19 05:19:22;;;;;;;;;;;;;;;18.26;57.42;98961.84;2069376;28;19935;-53
2023/03/19 05:20:22;;;;;;;;;;;;;;;18.26;57.49;98955.66;2067858;28;20016;-57